Airfield :
LOGIN :

Register | Disclaimer

   EN    FR    IT 

 










Legend :    VFR   Marginal VFR   IFR   Intensive IFR   Very Intensive IFR
Visi :
Ceiling :
>= 8 km
>= 3000ft
5 to 8 km
1000 to 3000 ft
1500m to 5 km
500 to 1000 ft
800 to 1500m
200 to 500 ft
< 800m
< 200 ft
Symbols :   Thunderstorms  Fog  Heavy snow  Heavy precipitations  Wind > 20 kt
SIGMETs :     Misc.  Thunderstorms  Icing  Turbulence  Mountain Waves  Volcanic Ashes






- Airport Elevation : 102 ft
- IATA code : CNG


LFBG - Cognac

CURRENT METAR :
  • 200530Z AUTO 11002KT 5000 1900 R23/1400U BR NSC 04/04 Q1024

EXPIRED METARs :
  • 200500Z AUTO VRB02KT 8000 NSC 04/04 Q1024
  • 200430Z AUTO VRB02KT 9000 NSC 05/04 Q1024
  • 200400Z AUTO 00000KT 9000 NSC 05/04 Q1024
  • 200330Z AUTO 15004KT CAVOK 05/05 Q1024
  • 200300Z AUTO 15007KT CAVOK 05/05 Q1024

TAF TAF LFBG
Valid from the 19 at 15:00 until the 20 at 15:00 UTC


191400Z 1915/2015 26010KT 9999 BKN040
BECMG 2004/2006 16005KT
PROB40
TEMPO 2005/2011 OVC003
BECMG 2011/2014 24010KT BKN016



MET'MAP, your aeronautical weather chart ! - Copyright ORBIFLY December 2007 - Disclaimer

ORBIFLY MET'MAP TEAM :

Programming & Development : Alexandra Zaïnal
Concept & original design : Baudouin d'Aumeries
Assistance for programming : Marc-Olivier Méhu
Technical & hardware support : Manuel Goepfert

Contact : metmap@orbifly.com




SOURCES & CREDITS :

   NOAA